Time;durP1;ratioP1;P1;durP2;ratioP2;P2;SDS_P1;SDS_P2;PMS_P1;PMS_P2;Temp;Humidity;BMP_temperature;BMP_pressure;BME280_temperature;BME280_humidity;BME280_pressure;Samples;Min_cycle;Max_cycle;Signal;HPM_P1;HPM_P2
2021/03/16 00:00:50;;;;;;;;;;;;;;;3.82;74.61;97994.06;5035384;28;20034;-69
2021/03/16 00:03:16;;;;;;;;;;;;;;;3.94;73.98;97999.94;5035822;28;19917;-69
2021/03/16 00:05:41;;;;;;;;;;;;;;;3.98;73.63;97990.63;5037518;28;19921;-69
2021/03/16 00:08:06;;;;;;;;;;;;;;;4.03;73.98;97993.97;5032800;28;20294;-70
2021/03/16 00:10:32;;;;;;;;;;;;;;;4.04;73.84;97995.66;5034055;28;19931;-70
2021/03/16 00:12:57;;;;;;;;;;;;;;;4.10;73.48;97985.50;5034538;28;19936;-69
2021/03/16 00:15:22;;;;;;;;;;;;;;;4.10;73.65;97986.34;5050903;28;19929;-69
2021/03/16 00:17:47;;;;;;;;;;;;;;;4.03;73.54;97991.44;5047372;28;20230;-70
2021/03/16 00:20:13;;;;;;;;;;;;;;;3.98;73.60;97985.53;5034534;28;19917;-69
2021/03/16 00:22:39;;;;;;;;;;;;;;;3.97;73.99;97987.22;5031259;28;20250;-69
2021/03/16 00:25:04;;;;;;;;;;;;;;;4.04;73.57;97986.34;5034122;28;20371;-71
2021/03/16 00:27:29;;;;;;;;;;;;;;;3.93;74.24;97982.16;5035583;28;19939;-70
2021/03/16 00:29:55;;;;;;;;;;;;;;;3.95;73.92;97985.53;5049704;28;19967;-70
2021/03/16 00:32:20;;;;;;;;;;;;;;;3.89;74.36;97983.03;5033522;28;20231;-70
2021/03/16 00:34:45;;;;;;;;;;;;;;;3.86;74.12;97986.41;5033287;28;19921;-70
2021/03/16 00:37:11;;;;;;;;;;;;;;;3.83;74.30;97983.03;5031416;28;20360;-69
2021/03/16 00:39:36;;;;;;;;;;;;;;;3.84;74.65;97985.56;5033885;28;19917;-70
2021/03/16 00:42:01;;;;;;;;;;;;;;;3.88;74.23;97973.72;5033603;28;19921;-69
2021/03/16 00:44:26;;;;;;;;;;;;;;;3.89;74.03;97977.97;5034980;28;20286;-70
2021/03/16 00:46:52;;;;;;;;;;;;;;;3.82;74.53;97978.84;5033792;28;19959;-68
2021/03/16 00:49:17;;;;;;;;;;;;;;;3.91;74.09;97973.72;5030287;28;20281;-70
2021/03/16 00:51:42;;;;;;;;;;;;;;;3.81;74.46;97970.38;5030699;28;20020;-68
2021/03/16 00:54:07;;;;;;;;;;;;;;;3.75;74.46;97972.94;5032243;28;19974;-69
2021/03/16 00:56:33;;;;;;;;;;;;;;;3.77;74.81;97981.38;5034285;28;20199;-69
2021/03/16 00:58:58;;;;;;;;;;;;;;;3.78;74.71;97984.75;5032642;28;19913;-69
2021/03/16 01:01:23;;;;;;;;;;;;;;;3.82;74.87;97984.72;5031317;28;19917;-70
2021/03/16 01:03:48;;;;;;;;;;;;;;;3.83;74.91;97991.50;5033637;28;19913;-69
2021/03/16 01:06:14;;;;;;;;;;;;;;;3.83;74.79;97994.03;5032611;28;19917;-69
2021/03/16 01:08:39;;;;;;;;;;;;;;;3.77;75.07;97990.69;5033962;28;19967;-68
2021/03/16 01:11:04;;;;;;;;;;;;;;;3.74;75.48;97996.56;5038039;28;20258;-69
2021/03/16 01:13:31;;;;;;;;;;;;;;;3.76;76.39;97996.59;5034790;28;19921;-69
2021/03/16 01:15:56;;;;;;;;;;;;;;;3.66;77.62;97999.13;5038194;28;19921;-70
2021/03/16 01:18:22;;;;;;;;;;;;;;;3.60;78.34;98001.69;5048624;28;20313;-67
2021/03/16 01:20:47;;;;;;;;;;;;;;;3.50;79.11;98002.53;5037737;28;19917;-66
2021/03/16 01:23:12;;;;;;;;;;;;;;;3.49;80.41;98000.84;5036450;28;20290;-64
2021/03/16 01:25:38;;;;;;;;;;;;;;;3.45;80.13;98001.69;5035623;28;19914;-65
2021/03/16 01:28:03;;;;;;;;;;;;;;;3.42;80.59;98004.25;5034327;28;19917;-65
2021/03/16 01:30:28;;;;;;;;;;;;;;;3.39;80.90;98001.72;5038406;28;19917;-65
2021/03/16 01:32:54;;;;;;;;;;;;;;;3.35;81.11;97994.97;5034695;28;19928;-64
2021/03/16 01:35:19;;;;;;;;;;;;;;;3.33;80.47;97996.66;5036160;28;20039;-64
2021/03/16 01:37:45;;;;;;;;;;;;;;;3.26;80.80;97996.66;5035298;28;19970;-64
2021/03/16 01:40:14;;;;;;;;;;;;;;;3.16;81.00;98004.25;5035964;28;19917;-64
2021/03/16 01:42:40;;;;;;;;;;;;;;;3.16;80.91;97993.28;5034498;28;19932;-65
2021/03/16 01:45:07;;;;;;;;;;;;;;;3.15;80.93;97984.84;5035905;28;19917;-64
2021/03/16 01:47:32;;;;;;;;;;;;;;;3.17;81.03;97989.91;5034779;28;20027;-66
2021/03/16 01:49:58;;;;;;;;;;;;;;;3.17;80.81;97983.16;5034180;28;20326;-66
2021/03/16 01:52:23;;;;;;;;;;;;;;;3.12;80.31;97984.84;5032241;28;19936;-66
2021/03/16 01:54:49;;;;;;;;;;;;;;;3.14;80.87;97984.84;5048516;28;20321;-67
2021/03/16 01:57:15;;;;;;;;;;;;;;;3.11;80.94;97979.78;5034209;28;20263;-66
2021/03/16 01:59:40;;;;;;;;;;;;;;;3.13;80.61;97983.16;5032224;28;19922;-67
2021/03/16 02:02:06;;;;;;;;;;;;;;;3.11;80.20;97977.22;5036301;28;19932;-66
2021/03/16 02:04:32;;;;;;;;;;;;;;;3.16;80.57;97984.00;5032792;28;19963;-66
2021/03/16 02:06:57;;;;;;;;;;;;;;;3.20;79.92;97989.91;5036576;28;19925;-66
2021/03/16 02:09:34;;;;;;;;;;;;;;;3.25;80.28;97980.63;5034175;28;19972;-66
2021/03/16 02:12:05;;;;;;;;;;;;;;;3.33;79.45;97981.44;5035188;28;19917;-67
2021/03/16 02:14:33;;;;;;;;;;;;;;;3.42;78.38;97988.19;5038256;28;19917;-68
2021/03/16 02:16:58;;;;;;;;;;;;;;;3.53;77.95;97984.78;5038604;28;19925;-71
2021/03/16 02:19:49;;;;;;;;;;;;;;;3.53;78.13;97984.78;5036976;28;19913;-72
2021/03/16 02:22:15;;;;;;;;;;;;;;;3.52;78.16;97995.78;5036694;28;20002;-70
2021/03/16 02:25:01;;;;;;;;;;;;;;;3.61;76.73;97994.91;5038259;28;19913;-70
2021/03/16 02:27:28;;;;;;;;;;;;;;;3.59;76.70;97984.81;5035228;28;19921;-68
2021/03/16 02:30:01;;;;;;;;;;;;;;;3.61;76.75;97987.31;5036330;28;19942;-70
2021/03/16 02:32:28;;;;;;;;;;;;;;;3.71;75.92;97993.22;5032338;28;19921;-69
2021/03/16 02:35:02;;;;;;;;;;;;;;;3.68;76.51;97994.06;5036057;28;19921;-71
2021/03/16 02:37:28;;;;;;;;;;;;;;;3.68;75.86;97989.84;5031187;28;20257;-69
2021/03/16 02:39:55;;;;;;;;;;;;;;;3.67;75.97;98002.53;5031865;28;20016;-69
2021/03/16 02:42:21;;;;;;;;;;;;;;;3.63;76.25;97996.63;5030057;28;19995;-70
2021/03/16 02:44:48;;;;;;;;;;;;;;;3.62;76.29;98004.22;5034586;28;20034;-69
2021/03/16 02:47:13;;;;;;;;;;;;;;;3.64;76.04;98007.59;5038826;28;19920;-69
2021/03/16 02:49:40;;;;;;;;;;;;;;;3.61;75.62;98041.38;5037183;28;19917;-68
2021/03/16 02:52:06;;;;;;;;;;;;;;;3.71;75.62;98018.56;5035354;28;19921;-69
2021/03/16 02:54:32;;;;;;;;;;;;;;;3.71;75.35;98016.88;5061681;28;20000;-69
2021/03/16 02:56:58;;;;;;;;;;;;;;;3.76;74.76;98019.41;5034809;28;19929;-69
2021/03/16 02:59:24;;;;;;;;;;;;;;;3.75;75.09;98020.25;5034775;28;19959;-70
2021/03/16 03:01:51;;;;;;;;;;;;;;;3.80;74.88;98024.47;5039167;28;20023;-70
2021/03/16 03:04:16;;;;;;;;;;;;;;;3.81;75.14;98032.91;5034454;28;20310;-70
2021/03/16 03:06:42;;;;;;;;;;;;;;;3.81;75.56;98030.38;5036062;28;20008;-69
2021/03/16 03:09:11;;;;;;;;;;;;;;;3.88;74.97;98044.72;5033165;28;19971;-71
2021/03/16 03:11:36;;;;;;;;;;;;;;;3.91;75.40;98040.47;5035991;28;20022;-69
2021/03/16 03:14:03;;;;;;;;;;;;;;;3.96;74.98;98037.94;5034381;28;20004;-70
2021/03/16 03:16:28;;;;;;;;;;;;;;;3.95;74.80;98051.47;5033300;28;20285;-70
2021/03/16 03:18:54;;;;;;;;;;;;;;;4.02;74.71;98051.47;5064615;28;19995;-71
2021/03/16 03:21:22;;;;;;;;;;;;;;;4.07;74.27;98049.75;5034193;28;19962;-70
2021/03/16 03:23:48;;;;;;;;;;;;;;;4.06;74.85;98043.00;5033536;28;20144;-70
2021/03/16 03:26:34;;;;;;;;;;;;;;;4.07;74.54;98048.91;5033938;28;19936;-71
2021/03/16 03:29:00;;;;;;;;;;;;;;;4.11;74.86;98059.06;5030431;28;19913;-68
2021/03/16 03:31:25;;;;;;;;;;;;;;;4.08;74.29;98055.66;5032827;28;20358;-69
2021/03/16 03:33:52;;;;;;;;;;;;;;;4.13;74.14;98067.50;5034300;28;20079;-69
2021/03/16 03:36:18;;;;;;;;;;;;;;;4.10;74.23;98062.44;5033828;28;19921;-69
2021/03/16 03:38:43;;;;;;;;;;;;;;;4.08;74.63;98068.34;5035350;28;19924;-69
2021/03/16 03:41:10;;;;;;;;;;;;;;;4.05;74.64;98071.75;5034272;28;19921;-70
2021/03/16 03:43:36;;;;;;;;;;;;;;;4.06;74.28;98075.97;5033002;28;19917;-70
2021/03/16 03:46:01;;;;;;;;;;;;;;;4.00;74.98;98070.03;5035689;28;20016;-70
2021/03/16 03:48:28;;;;;;;;;;;;;;;4.01;75.16;98069.22;5035877;28;20045;-70
2021/03/16 03:50:55;;;;;;;;;;;;;;;3.98;74.48;98077.69;5035696;28;20194;-70
2021/03/16 03:53:21;;;;;;;;;;;;;;;3.95;74.93;98081.88;5035616;28;19920;-70
2021/03/16 03:55:47;;;;;;;;;;;;;;;3.91;74.69;98081.06;5033067;28;20288;-69
2021/03/16 03:58:13;;;;;;;;;;;;;;;3.92;74.28;98097.97;5032484;28;19927;-69
2021/03/16 04:00:40;;;;;;;;;;;;;;;3.93;74.57;98106.41;5031470;28;19918;-69
2021/03/16 04:03:05;;;;;;;;;;;;;;;3.88;74.85;98105.56;5032637;28;19944;-70
2021/03/16 04:05:31;;;;;;;;;;;;;;;3.81;74.70;98096.28;5030937;28;19922;-69
2021/03/16 04:07:57;;;;;;;;;;;;;;;3.79;74.75;98105.56;5048572;28;19959;-69
2021/03/16 04:10:23;;;;;;;;;;;;;;;3.78;74.24;98109.81;5030060;28;19917;-69
2021/03/16 04:12:48;;;;;;;;;;;;;;;3.83;73.98;98103.03;5032740;28;19913;-70
2021/03/16 04:15:15;;;;;;;;;;;;;;;3.81;73.67;98102.22;5065988;28;19924;-69
2021/03/16 04:17:41;;;;;;;;;;;;;;;3.84;73.76;98091.22;5033631;28;19941;-71
2021/03/16 04:20:08;;;;;;;;;;;;;;;3.80;74.35;98097.13;5032584;28;19984;-68
2021/03/16 04:22:34;;;;;;;;;;;;;;;3.75;74.21;98099.66;5033754;28;19921;-69
2021/03/16 04:24:59;;;;;;;;;;;;;;;3.75;73.87;98098.81;5030635;28;20174;-68
2021/03/16 04:27:25;;;;;;;;;;;;;;;3.80;74.28;98102.19;5032342;28;19913;-67
2021/03/16 04:29:50;;;;;;;;;;;;;;;3.76;74.07;98101.38;5034183;28;19917;-67
2021/03/16 04:32:16;;;;;;;;;;;;;;;3.75;74.17;98104.75;5031748;28;20195;-69
2021/03/16 04:34:41;;;;;;;;;;;;;;;3.72;74.36;98099.69;5034046;28;19936;-69
2021/03/16 04:37:06;;;;;;;;;;;;;;;3.76;73.80;98103.06;5030949;28;19928;-70
2021/03/16 04:39:32;;;;;;;;;;;;;;;3.77;74.13;98110.66;5035695;28;19914;-71
2021/03/16 04:41:57;;;;;;;;;;;;;;;3.66;74.64;98119.94;5034373;28;20302;-70
2021/03/16 04:44:22;;;;;;;;;;;;;;;3.66;76.28;98117.41;5035172;28;19917;-69
2021/03/16 04:46:47;;;;;;;;;;;;;;;3.58;76.52;98114.88;5035895;28;19924;-70
2021/03/16 04:49:13;;;;;;;;;;;;;;;3.51;76.60;98128.41;5068727;28;19913;-70
2021/03/16 04:51:40;;;;;;;;;;;;;;;3.50;76.25;98131.78;5037789;28;20258;-72
2021/03/16 04:54:05;;;;;;;;;;;;;;;3.50;77.05;98123.31;5037721;28;19928;-70
2021/03/16 04:56:31;;;;;;;;;;;;;;;3.50;76.40;98138.53;5035772;28;19917;-70
2021/03/16 04:58:56;;;;;;;;;;;;;;;3.53;76.14;98125.84;5039331;28;19963;-70
2021/03/16 05:01:21;;;;;;;;;;;;;;;3.50;76.46;98146.97;5032952;28;19925;-69
2021/03/16 05:03:46;;;;;;;;;;;;;;;3.51;75.10;98151.22;5034182;28;20029;-69
2021/03/16 05:06:12;;;;;;;;;;;;;;;3.56;75.47;98139.41;5037323;28;19932;-70
2021/03/16 05:08:37;;;;;;;;;;;;;;;3.61;75.69;98130.09;5035811;28;20270;-69
2021/03/16 05:11:02;;;;;;;;;;;;;;;3.62;75.73;98136.00;5035171;28;19913;-69
2021/03/16 05:13:27;;;;;;;;;;;;;;;3.62;75.16;98130.94;5051935;28;19933;-70
2021/03/16 05:15:53;;;;;;;;;;;;;;;3.61;75.18;98144.44;5034519;28;19931;-69
2021/03/16 05:18:18;;;;;;;;;;;;;;;3.56;75.20;98139.41;5038817;28;19936;-70
2021/03/16 05:20:43;;;;;;;;;;;;;;;3.60;74.59;98145.31;5037268;28;19956;-70
2021/03/16 05:23:09;;;;;;;;;;;;;;;3.67;74.10;98142.78;5036549;28;19916;-70
2021/03/16 05:25:34;;;;;;;;;;;;;;;3.71;74.13;98152.91;5034557;28;19999;-70
2021/03/16 05:27:59;;;;;;;;;;;;;;;3.73;74.03;98153.75;5037984;28;19959;-70
2021/03/16 05:30:24;;;;;;;;;;;;;;;3.72;74.01;98162.19;5033235;28;19924;-70
2021/03/16 05:32:54;;;;;;;;;;;;;;;3.80;73.63;98155.44;5039188;28;19920;-70
2021/03/16 05:35:19;;;;;;;;;;;;;;;3.81;73.38;98169.81;5036800;28;19925;-70
2021/03/16 05:37:44;;;;;;;;;;;;;;;3.85;72.74;98158.81;5037839;28;19917;-70
2021/03/16 05:40:10;;;;;;;;;;;;;;;3.86;72.05;98168.13;5036025;28;19917;-70
2021/03/16 05:42:35;;;;;;;;;;;;;;;3.85;72.08;98162.22;5034419;28;20015;-70
2021/03/16 05:45:01;;;;;;;;;;;;;;;3.87;71.86;98169.78;5034246;28;19953;-70
2021/03/16 05:47:27;;;;;;;;;;;;;;;3.91;72.07;98167.25;5034978;28;19975;-69
2021/03/16 05:49:54;;;;;;;;;;;;;;;3.90;71.56;98165.59;5035327;28;19925;-71
2021/03/16 05:52:20;;;;;;;;;;;;;;;3.88;71.66;98166.41;5034776;28;20263;-70
2021/03/16 05:54:45;;;;;;;;;;;;;;;3.85;70.71;98181.66;5039685;28;19917;-71
2021/03/16 05:57:11;;;;;;;;;;;;;;;3.80;70.93;98178.25;5034508;28;19943;-71
2021/03/16 05:59:36;;;;;;;;;;;;;;;3.74;71.86;98184.16;5036034;28;19913;-71
2021/03/16 06:02:01;;;;;;;;;;;;;;;3.77;71.08;98190.94;5036159;28;20079;-71
2021/03/16 06:04:27;;;;;;;;;;;;;;;3.81;70.35;98192.63;5036667;28;19963;-69
2021/03/16 06:06:55;;;;;;;;;;;;;;;3.77;71.56;98204.47;5034263;28;19927;-71
2021/03/16 06:09:20;;;;;;;;;;;;;;;3.79;71.25;98200.22;5037590;28;20016;-70
2021/03/16 06:11:46;;;;;;;;;;;;;;;3.82;71.11;98196.88;5039272;28;20250;-70
2021/03/16 06:14:11;;;;;;;;;;;;;;;3.99;71.05;98208.69;5038824;28;20217;-73
2021/03/16 06:16:38;;;;;;;;;;;;;;;4.07;69.95;98208.69;5035340;28;19920;-70
2021/03/16 06:19:03;;;;;;;;;;;;;;;4.11;69.58;98200.25;5037567;28;20019;-70
2021/03/16 06:21:30;;;;;;;;;;;;;;;4.11;68.87;98212.94;5037003;28;20226;-71
2021/03/16 06:23:56;;;;;;;;;;;;;;;4.16;69.10;98218.00;5037089;28;19917;-71
2021/03/16 06:26:25;;;;;;;;;;;;;;;4.16;68.80;98212.94;5039043;28;19923;-71
2021/03/16 06:28:51;;;;;;;;;;;;;;;4.16;69.28;98215.47;5039955;28;20003;-69
2021/03/16 06:31:23;;;;;;;;;;;;;;;4.04;69.88;98226.44;5039902;28;20286;-70
2021/03/16 06:33:49;;;;;;;;;;;;;;;4.02;69.45;98223.06;5040330;28;19929;-71
2021/03/16 06:36:15;;;;;;;;;;;;;;;4.12;69.46;98222.22;5038088;28;20008;-70
2021/03/16 06:38:40;;;;;;;;;;;;;;;4.16;69.72;98225.63;5036053;28;19916;-70
2021/03/16 06:41:13;;;;;;;;;;;;;;;4.13;70.00;98223.91;5038562;28;19924;-70
2021/03/16 06:43:39;;;;;;;;;;;;;;;4.36;69.52;98224.75;5052356;28;19929;-70
2021/03/16 06:46:04;;;;;;;;;;;;;;;4.57;69.07;98213.72;5037922;28;19956;-69
2021/03/16 06:48:34;;;;;;;;;;;;;;;4.79;68.51;98211.97;5037453;28;19913;-71
2021/03/16 06:51:08;;;;;;;;;;;;;;;4.88;67.93;98225.47;5040185;28;19928;-70
2021/03/16 06:53:33;;;;;;;;;;;;;;;5.18;66.29;98244.03;5035895;28;19980;-70
2021/03/16 06:55:58;;;;;;;;;;;;;;;5.23;66.90;98235.50;5036982;28;19943;-71
2021/03/16 06:58:24;;;;;;;;;;;;;;;5.33;66.35;98254.97;5052970;28;19913;-69
2021/03/16 07:00:50;;;;;;;;;;;;;;;5.12;64.48;98242.34;5037830;28;19913;-69
2021/03/16 07:03:15;;;;;;;;;;;;;;;5.23;65.42;98258.38;5032918;28;19932;-70
2021/03/16 07:05:41;;;;;;;;;;;;;;;5.26;65.96;98255.00;5037924;28;19928;-69
2021/03/16 07:08:07;;;;;;;;;;;;;;;5.20;64.66;98258.41;5038366;28;19951;-70
2021/03/16 07:10:36;;;;;;;;;;;;;;;5.10;65.32;98259.28;5039416;28;19928;-69
2021/03/16 07:13:02;;;;;;;;;;;;;;;5.15;65.05;98264.34;5037194;28;20183;-69
2021/03/16 07:15:31;;;;;;;;;;;;;;;5.34;64.27;98258.34;5036021;28;19916;-70
2021/03/16 07:17:58;;;;;;;;;;;;;;;5.44;63.90;98273.53;5035221;28;19939;-70
2021/03/16 07:20:25;;;;;;;;;;;;;;;5.52;63.76;98263.31;5069023;28;19917;-69
2021/03/16 07:22:51;;;;;;;;;;;;;;;5.62;62.87;98261.59;5036946;28;20018;-71
2021/03/16 07:25:18;;;;;;;;;;;;;;;5.51;62.97;98275.22;5033823;28;20213;-68
2021/03/16 07:27:44;;;;;;;;;;;;;;;5.56;62.48;98262.47;5036938;28;19960;-68
2021/03/16 07:30:10;;;;;;;;;;;;;;;5.70;62.12;98267.47;5035745;28;19971;-68
2021/03/16 07:32:35;;;;;;;;;;;;;;;5.84;62.36;98278.44;5035077;28;19925;-69
2021/03/16 07:35:01;;;;;;;;;;;;;;;5.65;62.51;98279.38;5035593;28;19967;-69
2021/03/16 07:37:29;;;;;;;;;;;;;;;5.51;62.48;98282.84;5035983;28;19913;-69
2021/03/16 07:40:04;;;;;;;;;;;;;;;5.50;62.15;98280.31;5034172;28;19917;-69
2021/03/16 07:42:29;;;;;;;;;;;;;;;5.46;62.72;98284.56;5034577;28;20309;-70
2021/03/16 07:44:55;;;;;;;;;;;;;;;5.49;62.81;98288.78;5032718;28;19913;-69
2021/03/16 07:47:31;;;;;;;;;;;;;;;5.46;62.68;98288.78;5052474;28;19923;-68
2021/03/16 07:50:01;;;;;;;;;;;;;;;5.34;63.52;98292.25;5034453;28;19917;-69
2021/03/16 07:52:26;;;;;;;;;;;;;;;5.42;63.05;98293.06;5033145;28;19921;-69
2021/03/16 07:54:54;;;;;;;;;;;;;;;5.55;63.26;98309.09;5031764;28;19913;-69
2021/03/16 07:57:27;;;;;;;;;;;;;;;5.48;63.50;98287.94;5034861;28;19924;-67
2021/03/16 07:59:59;;;;;;;;;;;;;;;5.45;63.66;98299.81;5030048;28;20190;-67
2021/03/16 08:02:31;;;;;;;;;;;;;;;5.45;63.49;98302.34;5029682;28;19922;-67
2021/03/16 08:04:56;;;;;;;;;;;;;;;5.43;63.23;98320.13;5032706;28;19928;-66
2021/03/16 08:07:23;;;;;;;;;;;;;;;5.45;63.21;98315.06;5026486;28;19918;-68
2021/03/16 08:09:51;;;;;;;;;;;;;;;5.36;62.73;98315.94;5032483;28;19921;-68
2021/03/16 08:12:20;;;;;;;;;;;;;;;5.24;63.91;98327.84;5029397;28;20276;-67
2021/03/16 08:14:45;;;;;;;;;;;;;;;5.24;63.16;98312.59;5048994;28;19913;-67
2021/03/16 08:17:10;;;;;;;;;;;;;;;5.47;63.16;98313.38;5054112;28;19914;-68
2021/03/16 08:19:39;;;;;;;;;;;;;;;5.42;63.25;98315.94;5036974;28;20051;-69
2021/03/16 08:22:05;;;;;;;;;;;;;;;5.45;63.01;98341.34;5036369;28;19952;-68
2021/03/16 08:24:34;;;;;;;;;;;;;;;5.35;63.20;98326.94;5068179;28;19943;-69
2021/03/16 08:27:00;;;;;;;;;;;;;;;5.71;63.17;98322.56;5037225;28;19917;-70
2021/03/16 08:29:26;;;;;;;;;;;;;;;5.83;62.02;98336.09;5031660;28;20358;-66
2021/03/16 08:31:52;;;;;;;;;;;;;;;5.70;61.87;98319.19;5034081;28;20193;-71
2021/03/16 08:34:20;;;;;;;;;;;;;;;5.81;61.74;98325.06;5067496;28;19951;-70
2021/03/16 08:36:45;;;;;;;;;;;;;;;5.64;61.68;98321.78;5066698;28;19913;-70
2021/03/16 08:39:18;;;;;;;;;;;;;;;5.74;62.50;98330.19;5066813;28;19963;-69
2021/03/16 08:41:52;;;;;;;;;;;;;;;5.68;62.07;98328.53;5036392;28;20019;-70
2021/03/16 08:44:20;;;;;;;;;;;;;;;5.66;62.15;98334.47;5035356;28;19972;-70
2021/03/16 08:46:46;;;;;;;;;;;;;;;5.73;62.60;98346.31;5037216;28;19928;-69
2021/03/16 08:49:19;;;;;;;;;;;;;;;5.77;61.77;98331.00;5035959;28;20015;-70
2021/03/16 08:51:44;;;;;;;;;;;;;;;5.91;65.11;98358.97;5069964;28;19968;-71
2021/03/16 08:54:10;;;;;;;;;;;;;;;5.34;70.00;98350.69;5039768;28;19948;-69
2021/03/16 08:56:35;;;;;;;;;;;;;;;5.09;71.44;98353.28;5036550;28;19927;-69
2021/03/16 08:59:04;;;;;;;;;;;;;;;4.99;71.90;98343.16;5034671;28;19967;-70
2021/03/16 09:01:31;;;;;;;;;;;;;;;4.94;70.96;98349.91;5069876;28;20317;-69
2021/03/16 09:03:58;;;;;;;;;;;;;;;5.19;70.02;98339.69;5067370;28;19913;-70
2021/03/16 09:06:23;;;;;;;;;;;;;;;5.46;67.25;98352.34;5035706;28;19983;-68
2021/03/16 09:08:52;;;;;;;;;;;;;;;5.63;64.92;98342.13;5037434;28;19917;-71
2021/03/16 09:11:31;;;;;;;;;;;;;;;5.79;65.93;98342.03;5069151;28;20214;-69
2021/03/16 09:14:08;;;;;;;;;;;;;;;5.72;64.76;98345.47;5037197;28;19921;-70
2021/03/16 09:16:34;;;;;;;;;;;;;;;5.68;63.64;98356.50;5036261;28;19921;-68
2021/03/16 09:18:59;;;;;;;;;;;;;;;5.76;63.78;98341.22;5036130;28;20028;-66
2021/03/16 09:21:24;;;;;;;;;;;;;;;6.28;62.98;98337.53;5037022;28;20198;-69
2021/03/16 09:23:50;;;;;;;;;;;;;;;6.31;61.55;98340.06;5045230;28;19960;-68
2021/03/16 09:26:23;;;;;;;;;;;;;;;6.28;60.39;98347.72;5045898;28;20083;-67
2021/03/16 09:28:49;;;;;;;;;;;;;;;6.14;61.21;98325.78;5065376;28;20292;-69
2021/03/16 09:31:14;;;;;;;;;;;;;;;6.20;61.14;98320.63;5052686;28;19948;-70
2021/03/16 09:33:41;;;;;;;;;;;;;;;6.17;60.68;98336.75;5046799;28;19917;-70
2021/03/16 09:36:07;;;;;;;;;;;;;;;6.37;60.56;98324.75;5042918;28;19913;-69
2021/03/16 09:38:32;;;;;;;;;;;;;;;6.28;60.12;98331.63;5041373;28;20156;-68
2021/03/16 09:40:57;;;;;;;;;;;;;;;6.45;59.72;98334.03;5035263;28;19917;-66
2021/03/16 09:43:24;;;;;;;;;;;;;;;6.41;59.35;98328.09;5036983;28;20008;-68
2021/03/16 09:45:51;;;;;;;;;;;;;;;6.36;57.73;98335.81;5032595;28;19937;-69
2021/03/16 09:48:17;;;;;;;;;;;;;;;6.67;58.67;98335.53;5038461;28;19964;-68
2021/03/16 09:50:44;;;;;;;;;;;;;;;6.62;58.53;98342.41;5037036;28;20205;-68
2021/03/16 09:53:12;;;;;;;;;;;;;;;6.81;57.05;98360.06;5035718;28;19944;-69
2021/03/16 09:55:37;;;;;;;;;;;;;;;6.73;56.35;98349.09;5035378;28;20252;-69
2021/03/16 09:58:02;;;;;;;;;;;;;;;6.89;57.74;98354.91;5036101;28;20059;-69
2021/03/16 10:00:28;;;;;;;;;;;;;;;6.87;57.56;98346.44;5034003;28;19975;-68
2021/03/16 10:03:07;;;;;;;;;;;;;;;6.94;58.15;98342.97;5031805;28;20154;-70
2021/03/16 10:05:32;;;;;;;;;;;;;;;7.03;57.52;98347.97;5037273;28;20000;-68
2021/03/16 10:07:58;;;;;;;;;;;;;;;6.68;57.91;98347.44;5035080;28;20015;-68
2021/03/16 10:10:24;;;;;;;;;;;;;;;6.72;58.48;98377.13;5034594;28;19920;-68
2021/03/16 10:12:50;;;;;;;;;;;;;;;6.61;58.66;98359.38;5034280;28;19917;-68
2021/03/16 10:15:20;;;;;;;;;;;;;;;6.68;58.26;98370.34;5037829;28;20198;-68
2021/03/16 10:17:46;;;;;;;;;;;;;;;7.05;58.53;98351.34;5035359;28;19925;-69
2021/03/16 10:20:11;;;;;;;;;;;;;;;7.13;57.97;98354.66;5036398;28;20035;-69
2021/03/16 10:22:37;;;;;;;;;;;;;;;7.40;57.31;98350.13;5032774;28;20341;-67
2021/03/16 10:25:03;;;;;;;;;;;;;;;6.83;57.26;98358.31;5036296;28;19917;-67
2021/03/16 10:27:30;;;;;;;;;;;;;;;6.66;57.53;98346.63;5034077;28;20003;-67
2021/03/16 10:29:55;;;;;;;;;;;;;;;6.48;57.32;98364.56;5035709;28;19928;-67
2021/03/16 10:32:21;;;;;;;;;;;;;;;6.50;58.43;98378.97;5034335;28;20004;-66
2021/03/16 10:34:46;;;;;;;;;;;;;;;6.55;58.56;98373.84;5035627;28;19918;-68
2021/03/16 10:37:19;;;;;;;;;;;;;;;6.26;59.53;98362.16;5033743;28;20263;-68
2021/03/16 10:39:44;;;;;;;;;;;;;;;6.33;59.26;98368.91;5034401;28;19913;-67
2021/03/16 10:42:09;;;;;;;;;;;;;;;6.70;59.29;98359.31;5035756;28;20008;-69
2021/03/16 10:44:35;;;;;;;;;;;;;;;6.48;58.36;98370.50;5037668;28;19917;-68
2021/03/16 10:47:00;;;;;;;;;;;;;;;6.72;58.03;98360.13;5036057;28;19917;-68
2021/03/16 10:49:25;;;;;;;;;;;;;;;6.45;59.89;98356.97;5034556;28;19917;-67
2021/03/16 10:51:50;;;;;;;;;;;;;;;6.39;60.74;98368.88;5033744;28;20259;-67
2021/03/16 10:54:16;;;;;;;;;;;;;;;6.42;60.17;98368.84;5036260;28;19971;-67
2021/03/16 10:56:42;;;;;;;;;;;;;;;6.49;59.68;98377.31;5038175;28;19917;-67
2021/03/16 10:59:07;;;;;;;;;;;;;;;6.43;60.61;98375.63;5066380;28;20212;-67
2021/03/16 11:01:33;;;;;;;;;;;;;;;6.38;60.23;98390.09;5035746;28;20004;-66
2021/03/16 11:03:58;;;;;;;;;;;;;;;6.55;60.75;98389.13;5034954;28;19933;-67
2021/03/16 11:06:23;;;;;;;;;;;;;;;6.79;59.75;98374.50;5034883;28;19932;-67
2021/03/16 11:08:48;;;;;;;;;;;;;;;6.95;58.32;98370.13;5034343;28;20278;-66
2021/03/16 11:11:13;;;;;;;;;;;;;;;7.07;57.44;98380.22;5036458;28;20186;-68
2021/03/16 11:13:39;;;;;;;;;;;;;;;6.78;58.48;98384.72;5034188;28;19917;-68
2021/03/16 11:16:05;;;;;;;;;;;;;;;6.73;60.01;98389.00;5036272;28;19989;-67
2021/03/16 11:18:30;;;;;;;;;;;;;;;6.98;59.39;98382.84;5035556;28;19920;-67
2021/03/16 11:20:55;;;;;;;;;;;;;;;7.14;57.05;98388.63;5035800;28;20266;-67
2021/03/16 11:23:20;;;;;;;;;;;;;;;7.03;55.60;98381.09;5035004;28;19925;-67
2021/03/16 11:25:46;;;;;;;;;;;;;;;7.01;55.40;98381.97;5034658;28;19913;-67
2021/03/16 11:28:11;;;;;;;;;;;;;;;7.47;54.23;98380.66;5035409;28;20253;-66
2021/03/16 11:30:36;;;;;;;;;;;;;;;7.42;54.11;98394.34;5032905;28;19913;-63
2021/03/16 11:33:02;;;;;;;;;;;;;;;7.62;55.22;98382.19;5026519;28;19921;-67
2021/03/16 11:35:27;;;;;;;;;;;;;;;7.20;55.55;98376.69;5030308;28;19930;-67
2021/03/16 11:37:52;;;;;;;;;;;;;;;7.09;57.69;98388.69;5031112;28;19921;-69
2021/03/16 11:40:18;;;;;;;;;;;;;;;7.08;58.19;98399.75;5030040;28;19917;-67
2021/03/16 11:42:44;;;;;;;;;;;;;;;6.82;60.98;98399.13;5022435;28;19925;-68
2021/03/16 11:45:09;;;;;;;;;;;;;;;6.64;61.64;98389.06;5016610;28;19924;-67
2021/03/16 11:47:35;;;;;;;;;;;;;;;6.46;62.68;98400.22;5018222;28;19951;-67
2021/03/16 11:50:00;;;;;;;;;;;;;;;6.39;62.55;98391.78;5017174;28;19920;-67
2021/03/16 11:52:25;;;;;;;;;;;;;;;6.45;61.26;98393.44;5029776;28;19961;-67
2021/03/16 11:54:51;;;;;;;;;;;;;;;6.77;61.01;98406.81;5049056;28;19967;-66
2021/03/16 11:57:16;;;;;;;;;;;;;;;6.71;59.24;98389.00;5016865;28;19914;-66
2021/03/16 11:59:41;;;;;;;;;;;;;;;7.06;57.89;98388.72;5015903;28;19919;-67
2021/03/16 12:02:07;;;;;;;;;;;;;;;7.37;57.38;98393.53;5013964;28;19969;-66
2021/03/16 12:04:32;;;;;;;;;;;;;;;7.16;56.12;98375.03;5016516;28;19917;-66
2021/03/16 12:06:58;;;;;;;;;;;;;;;7.43;55.89;98389.19;5016631;28;20131;-66
2021/03/16 12:09:23;;;;;;;;;;;;;;;7.09;55.61;98390.38;5015332;28;19932;-65
2021/03/16 12:11:48;;;;;;;;;;;;;;;7.24;55.71;98406.41;5012424;28;19929;-67
2021/03/16 12:14:14;;;;;;;;;;;;;;;7.31;55.36;98402.06;5012142;28;20004;-68
2021/03/16 12:16:39;;;;;;;;;;;;;;;7.42;53.78;98414.75;5012327;28;20251;-66
2021/03/16 12:19:04;;;;;;;;;;;;;;;7.49;53.95;98370.44;5015406;28;19936;-68
2021/03/16 12:21:29;;;;;;;;;;;;;;;7.29;53.29;98399.56;5015623;28;19925;-65
2021/03/16 12:23:55;;;;;;;;;;;;;;;7.43;54.38;98388.34;5016597;28;19933;-66
2021/03/16 12:26:20;;;;;;;;;;;;;;;7.39;53.68;98381.59;5015924;28;20215;-68
2021/03/16 12:28:45;;;;;;;;;;;;;;;7.38;53.03;98374.81;5015564;28;19921;-66
2021/03/16 12:31:12;;;;;;;;;;;;;;;7.55;53.06;98399.28;5015554;28;20001;-67
2021/03/16 12:33:37;;;;;;;;;;;;;;;7.62;52.54;98380.50;5049113;28;19992;-64
2021/03/16 12:36:03;;;;;;;;;;;;;;;7.47;53.15;98402.78;5017016;28;19981;-67
2021/03/16 12:38:28;;;;;;;;;;;;;;;7.34;53.58;98379.94;5016025;28;20030;-68
2021/03/16 12:40:53;;;;;;;;;;;;;;;7.19;53.92;98400.50;5015648;28;20705;-67
2021/03/16 12:43:20;;;;;;;;;;;;;;;7.28;54.71;98380.00;5017265;28;20504;-66
2021/03/16 12:45:46;;;;;;;;;;;;;;;7.67;53.16;98388.09;5016561;28;19917;-66
2021/03/16 12:48:11;;;;;;;;;;;;;;;7.58;52.86;98409.47;5015744;28;19967;-67
2021/03/16 12:50:37;;;;;;;;;;;;;;;7.53;52.55;98410.34;5015947;28;19929;-67
2021/03/16 12:53:04;;;;;;;;;;;;;;;7.70;53.30;98396.56;5016079;28;19964;-64